sensor_id;sensor_type;location;lat;lon;timestamp;pressure;altitude;pressure_sealevel;temperature
38114;BMP180;23926;53.222;6.354;2023-11-19T00:01:26;100355.00;;;15.00
38114;BMP180;23926;53.222;6.354;2023-11-19T00:03:51;100357.00;;;15.00
38114;BMP180;23926;53.222;6.354;2023-11-19T00:06:16;100349.00;;;15.10
38114;BMP180;23926;53.222;6.354;2023-11-19T00:08:42;100348.00;;;15.10
38114;BMP180;23926;53.222;6.354;2023-11-19T00:11:09;100345.00;;;15.20
38114;BMP180;23926;53.222;6.354;2023-11-19T00:13:34;100345.00;;;15.10
38114;BMP180;23926;53.222;6.354;2023-11-19T00:16:00;100334.00;;;15.10
38114;BMP180;23926;53.222;6.354;2023-11-19T00:18:25;100325.00;;;15.20
38114;BMP180;23926;53.222;6.354;2023-11-19T00:20:50;100322.00;;;15.20
38114;BMP180;23926;53.222;6.354;2023-11-19T00:23:16;100318.00;;;15.20
38114;BMP180;23926;53.222;6.354;2023-11-19T00:25:41;100323.00;;;15.30
38114;BMP180;23926;53.222;6.354;2023-11-19T00:28:07;100317.00;;;15.30
38114;BMP180;23926;53.222;6.354;2023-11-19T00:30:33;100312.00;;;15.30
38114;BMP180;23926;53.222;6.354;2023-11-19T00:32:58;100315.00;;;15.20
38114;BMP180;23926;53.222;6.354;2023-11-19T00:35:23;100334.00;;;15.30
38114;BMP180;23926;53.222;6.354;2023-11-19T00:37:49;100315.00;;;15.30
38114;BMP180;23926;53.222;6.354;2023-11-19T00:40:16;100322.00;;;15.40
38114;BMP180;23926;53.222;6.354;2023-11-19T00:42:43;100305.00;;;15.40
38114;BMP180;23926;53.222;6.354;2023-11-19T00:45:09;100307.00;;;15.40
38114;BMP180;23926;53.222;6.354;2023-11-19T00:47:35;100308.00;;;15.30
38114;BMP180;23926;53.222;6.354;2023-11-19T00:50:04;100301.00;;;15.30
38114;BMP180;23926;53.222;6.354;2023-11-19T00:52:29;100302.00;;;15.30
38114;BMP180;23926;53.222;6.354;2023-11-19T00:54:55;100290.00;;;15.40
38114;BMP180;23926;53.222;6.354;2023-11-19T00:57:20;100297.00;;;15.40
38114;BMP180;23926;53.222;6.354;2023-11-19T00:59:45;100295.00;;;15.40
38114;BMP180;23926;53.222;6.354;2023-11-19T01:02:12;100282.00;;;15.50
38114;BMP180;23926;53.222;6.354;2023-11-19T01:04:39;100287.00;;;15.40
38114;BMP180;23926;53.222;6.354;2023-11-19T01:07:05;100290.00;;;15.50
38114;BMP180;23926;53.222;6.354;2023-11-19T01:09:34;100287.00;;;15.40
38114;BMP180;23926;53.222;6.354;2023-11-19T01:12:00;100277.00;;;15.40
38114;BMP180;23926;53.222;6.354;2023-11-19T01:14:27;100279.00;;;15.40
38114;BMP180;23926;53.222;6.354;2023-11-19T01:16:52;100279.00;;;15.40
38114;BMP180;23926;53.222;6.354;2023-11-19T01:19:19;100299.00;;;15.40
38114;BMP180;23926;53.222;6.354;2023-11-19T01:21:45;100304.00;;;15.40
38114;BMP180;23926;53.222;6.354;2023-11-19T01:24:10;100296.00;;;15.40
38114;BMP180;23926;53.222;6.354;2023-11-19T01:26:38;100299.00;;;15.30
38114;BMP180;23926;53.222;6.354;2023-11-19T01:29:03;100298.00;;;15.30
38114;BMP180;23926;53.222;6.354;2023-11-19T01:31:30;100299.00;;;15.30
38114;BMP180;23926;53.222;6.354;2023-11-19T01:33:57;100299.00;;;15.50
38114;BMP180;23926;53.222;6.354;2023-11-19T01:36:22;100287.00;;;15.30
38114;BMP180;23926;53.222;6.354;2023-11-19T01:38:48;100292.00;;;15.40
38114;BMP180;23926;53.222;6.354;2023-11-19T01:41:14;100295.00;;;15.40
38114;BMP180;23926;53.222;6.354;2023-11-19T01:43:39;100291.00;;;15.40
38114;BMP180;23926;53.222;6.354;2023-11-19T01:46:08;100264.00;;;15.40
38114;BMP180;23926;53.222;6.354;2023-11-19T01:48:38;100271.00;;;15.50
38114;BMP180;23926;53.222;6.354;2023-11-19T01:51:07;100278.00;;;15.50
38114;BMP180;23926;53.222;6.354;2023-11-19T01:53:34;100260.00;;;15.40
38114;BMP180;23926;53.222;6.354;2023-11-19T01:56:01;100252.00;;;15.40
38114;BMP180;23926;53.222;6.354;2023-11-19T01:58:26;100262.00;;;15.50
38114;BMP180;23926;53.222;6.354;2023-11-19T02:00:52;100262.00;;;15.30
38114;BMP180;23926;53.222;6.354;2023-11-19T02:03:18;100254.00;;;15.40
38114;BMP180;23926;53.222;6.354;2023-11-19T02:05:45;100249.00;;;15.30
38114;BMP180;23926;53.222;6.354;2023-11-19T02:08:14;100254.00;;;15.30
38114;BMP180;23926;53.222;6.354;2023-11-19T02:10:39;100256.00;;;15.30
38114;BMP180;23926;53.222;6.354;2023-11-19T02:13:05;100265.00;;;15.20
38114;BMP180;23926;53.222;6.354;2023-11-19T02:15:32;100270.00;;;15.20
38114;BMP180;23926;53.222;6.354;2023-11-19T02:17:57;100263.00;;;15.20
38114;BMP180;23926;53.222;6.354;2023-11-19T02:20:42;100288.00;;;15.30
38114;BMP180;23926;53.222;6.354;2023-11-19T02:23:07;100278.00;;;15.30
38114;BMP180;23926;53.222;6.354;2023-11-19T02:25:33;100274.00;;;15.30
38114;BMP180;23926;53.222;6.354;2023-11-19T02:28:00;100271.00;;;15.30
38114;BMP180;23926;53.222;6.354;2023-11-19T02:30:26;100271.00;;;15.30
38114;BMP180;23926;53.222;6.354;2023-11-19T02:33:01;100274.00;;;15.20
38114;BMP180;23926;53.222;6.354;2023-11-19T02:35:30;100277.00;;;15.20
38114;BMP180;23926;53.222;6.354;2023-11-19T02:37:57;100271.00;;;15.20
38114;BMP180;23926;53.222;6.354;2023-11-19T02:40:24;100261.00;;;15.30
38114;BMP180;23926;53.222;6.354;2023-11-19T02:42:50;100266.00;;;15.20
38114;BMP180;23926;53.222;6.354;2023-11-19T02:45:16;100272.00;;;15.20
38114;BMP180;23926;53.222;6.354;2023-11-19T02:47:43;100266.00;;;15.20
38114;BMP180;23926;53.222;6.354;2023-11-19T02:50:11;100265.00;;;15.20
38114;BMP180;23926;53.222;6.354;2023-11-19T02:52:44;100248.00;;;15.20
38114;BMP180;23926;53.222;6.354;2023-11-19T02:55:11;100258.00;;;14.90
38114;BMP180;23926;53.222;6.354;2023-11-19T02:57:40;100243.00;;;15.00
38114;BMP180;23926;53.222;6.354;2023-11-19T03:00:16;100253.00;;;15.00
38114;BMP180;23926;53.222;6.354;2023-11-19T03:02:42;100248.00;;;14.80
38114;BMP180;23926;53.222;6.354;2023-11-19T03:05:15;100247.00;;;14.80
38114;BMP180;23926;53.222;6.354;2023-11-19T03:07:42;100240.00;;;14.80
38114;BMP180;23926;53.222;6.354;2023-11-19T03:10:09;100240.00;;;14.90
38114;BMP180;23926;53.222;6.354;2023-11-19T03:12:39;100234.00;;;14.80
38114;BMP180;23926;53.222;6.354;2023-11-19T03:15:05;100243.00;;;14.70
38114;BMP180;23926;53.222;6.354;2023-11-19T03:17:30;100238.00;;;14.80
38114;BMP180;23926;53.222;6.354;2023-11-19T03:19:56;100229.00;;;14.80
38114;BMP180;23926;53.222;6.354;2023-11-19T03:22:21;100226.00;;;14.70
38114;BMP180;23926;53.222;6.354;2023-11-19T03:24:47;100226.00;;;14.70
38114;BMP180;23926;53.222;6.354;2023-11-19T03:27:12;100227.00;;;14.80
38114;BMP180;23926;53.222;6.354;2023-11-19T03:29:38;100229.00;;;14.80
38114;BMP180;23926;53.222;6.354;2023-11-19T03:32:04;100241.00;;;15.00
38114;BMP180;23926;53.222;6.354;2023-11-19T03:34:29;100239.00;;;14.90
38114;BMP180;23926;53.222;6.354;2023-11-19T03:36:55;100220.00;;;14.80
38114;BMP180;23926;53.222;6.354;2023-11-19T03:39:22;100227.00;;;14.90
38114;BMP180;23926;53.222;6.354;2023-11-19T03:41:50;100225.00;;;15.00
38114;BMP180;23926;53.222;6.354;2023-11-19T03:44:15;100217.00;;;14.80
38114;BMP180;23926;53.222;6.354;2023-11-19T03:46:40;100212.00;;;14.80
38114;BMP180;23926;53.222;6.354;2023-11-19T03:49:06;100224.00;;;14.90
38114;BMP180;23926;53.222;6.354;2023-11-19T03:51:32;100230.00;;;14.90
38114;BMP180;23926;53.222;6.354;2023-11-19T03:53:57;100211.00;;;15.00
38114;BMP180;23926;53.222;6.354;2023-11-19T03:56:24;100229.00;;;15.00
38114;BMP180;23926;53.222;6.354;2023-11-19T03:58:49;100225.00;;;14.90
38114;BMP180;23926;53.222;6.354;2023-11-19T04:01:15;100215.00;;;14.90
38114;BMP180;23926;53.222;6.354;2023-11-19T04:03:40;100215.00;;;14.80
38114;BMP180;23926;53.222;6.354;2023-11-19T04:06:06;100217.00;;;14.90
38114;BMP180;23926;53.222;6.354;2023-11-19T04:08:31;100216.00;;;14.80
38114;BMP180;23926;53.222;6.354;2023-11-19T04:10:57;100215.00;;;14.70
38114;BMP180;23926;53.222;6.354;2023-11-19T04:13:22;100211.00;;;14.80
38114;BMP180;23926;53.222;6.354;2023-11-19T04:15:50;100206.00;;;14.90
38114;BMP180;23926;53.222;6.354;2023-11-19T04:18:15;100207.00;;;14.80
38114;BMP180;23926;53.222;6.354;2023-11-19T04:20:41;100208.00;;;14.80
38114;BMP180;23926;53.222;6.354;2023-11-19T04:23:08;100223.00;;;15.00
38114;BMP180;23926;53.222;6.354;2023-11-19T04:25:35;100221.00;;;14.90
38114;BMP180;23926;53.222;6.354;2023-11-19T04:28:00;100214.00;;;14.70
38114;BMP180;23926;53.222;6.354;2023-11-19T04:30:25;100214.00;;;14.70
38114;BMP180;23926;53.222;6.354;2023-11-19T04:32:51;100219.00;;;14.70
38114;BMP180;23926;53.222;6.354;2023-11-19T04:35:16;100220.00;;;14.70
38114;BMP180;23926;53.222;6.354;2023-11-19T04:37:42;100214.00;;;14.70
38114;BMP180;23926;53.222;6.354;2023-11-19T04:40:07;100205.00;;;14.80
38114;BMP180;23926;53.222;6.354;2023-11-19T04:42:34;100218.00;;;14.80
38114;BMP180;23926;53.222;6.354;2023-11-19T04:44:59;100211.00;;;14.70
38114;BMP180;23926;53.222;6.354;2023-11-19T04:47:24;100219.00;;;14.90
38114;BMP180;23926;53.222;6.354;2023-11-19T04:49:50;100219.00;;;15.00
38114;BMP180;23926;53.222;6.354;2023-11-19T04:52:15;100219.00;;;14.90
38114;BMP180;23926;53.222;6.354;2023-11-19T04:54:44;100226.00;;;15.00
38114;BMP180;23926;53.222;6.354;2023-11-19T04:57:10;100213.00;;;15.00
38114;BMP180;23926;53.222;6.354;2023-11-19T04:59:38;100209.00;;;14.90
38114;BMP180;23926;53.222;6.354;2023-11-19T05:02:04;100212.00;;;14.70
38114;BMP180;23926;53.222;6.354;2023-11-19T05:04:30;100206.00;;;14.70
38114;BMP180;23926;53.222;6.354;2023-11-19T05:06:56;100216.00;;;14.80
38114;BMP180;23926;53.222;6.354;2023-11-19T05:09:21;100216.00;;;14.50
38114;BMP180;23926;53.222;6.354;2023-11-19T05:11:47;100224.00;;;14.40
38114;BMP180;23926;53.222;6.354;2023-11-19T05:14:12;100227.00;;;14.40
38114;BMP180;23926;53.222;6.354;2023-11-19T05:16:41;100219.00;;;14.50
38114;BMP180;23926;53.222;6.354;2023-11-19T05:19:06;100209.00;;;14.20
38114;BMP180;23926;53.222;6.354;2023-11-19T05:21:32;100217.00;;;14.30
38114;BMP180;23926;53.222;6.354;2023-11-19T05:23:57;100226.00;;;14.30
38114;BMP180;23926;53.222;6.354;2023-11-19T05:26:23;100221.00;;;14.30
38114;BMP180;23926;53.222;6.354;2023-11-19T05:28:49;100227.00;;;14.20
38114;BMP180;23926;53.222;6.354;2023-11-19T05:31:16;100220.00;;;14.40
38114;BMP180;23926;53.222;6.354;2023-11-19T05:33:42;100219.00;;;14.30
38114;BMP180;23926;53.222;6.354;2023-11-19T05:36:11;100228.00;;;14.40
38114;BMP180;23926;53.222;6.354;2023-11-19T05:38:38;100229.00;;;14.30
38114;BMP180;23926;53.222;6.354;2023-11-19T05:41:03;100224.00;;;14.50
38114;BMP180;23926;53.222;6.354;2023-11-19T05:43:30;100231.00;;;14.50
38114;BMP180;23926;53.222;6.354;2023-11-19T05:45:55;100234.00;;;14.40
38114;BMP180;23926;53.222;6.354;2023-11-19T05:48:21;100238.00;;;14.20
38114;BMP180;23926;53.222;6.354;2023-11-19T05:50:46;100240.00;;;14.30
38114;BMP180;23926;53.222;6.354;2023-11-19T05:53:14;100231.00;;;14.40
38114;BMP180;23926;53.222;6.354;2023-11-19T05:55:40;100235.00;;;14.30
38114;BMP180;23926;53.222;6.354;2023-11-19T05:58:13;100235.00;;;14.20
38114;BMP180;23926;53.222;6.354;2023-11-19T06:00:38;100252.00;;;14.00
38114;BMP180;23926;53.222;6.354;2023-11-19T06:03:07;100231.00;;;14.00
38114;BMP180;23926;53.222;6.354;2023-11-19T06:05:32;100230.00;;;14.20
38114;BMP180;23926;53.222;6.354;2023-11-19T06:07:58;100239.00;;;14.20
38114;BMP180;23926;53.222;6.354;2023-11-19T06:10:23;100239.00;;;14.40
38114;BMP180;23926;53.222;6.354;2023-11-19T06:12:58;100237.00;;;14.30
38114;BMP180;23926;53.222;6.354;2023-11-19T06:15:28;100232.00;;;14.20
38114;BMP180;23926;53.222;6.354;2023-11-19T06:17:53;100239.00;;;14.20
38114;BMP180;23926;53.222;6.354;2023-11-19T06:20:19;100237.00;;;14.20
38114;BMP180;23926;53.222;6.354;2023-11-19T06:22:45;100231.00;;;14.20
38114;BMP180;23926;53.222;6.354;2023-11-19T06:25:11;100236.00;;;14.40
38114;BMP180;23926;53.222;6.354;2023-11-19T06:27:37;100247.00;;;14.30
38114;BMP180;23926;53.222;6.354;2023-11-19T06:30:02;100246.00;;;14.30
38114;BMP180;23926;53.222;6.354;2023-11-19T06:32:28;100250.00;;;14.50
38114;BMP180;23926;53.222;6.354;2023-11-19T06:34:54;100241.00;;;14.50
38114;BMP180;23926;53.222;6.354;2023-11-19T06:37:19;100257.00;;;14.40
38114;BMP180;23926;53.222;6.354;2023-11-19T06:39:45;100247.00;;;14.00
38114;BMP180;23926;53.222;6.354;2023-11-19T06:42:10;100248.00;;;14.00
38114;BMP180;23926;53.222;6.354;2023-11-19T06:44:36;100246.00;;;14.10
38114;BMP180;23926;53.222;6.354;2023-11-19T06:47:01;100245.00;;;14.10
38114;BMP180;23926;53.222;6.354;2023-11-19T06:49:27;100254.00;;;14.10
38114;BMP180;23926;53.222;6.354;2023-11-19T06:51:52;100255.00;;;14.10
38114;BMP180;23926;53.222;6.354;2023-11-19T06:54:17;100257.00;;;14.10
38114;BMP180;23926;53.222;6.354;2023-11-19T06:56:43;100257.00;;;13.90
38114;BMP180;23926;53.222;6.354;2023-11-19T06:59:09;100252.00;;;13.80
38114;BMP180;23926;53.222;6.354;2023-11-19T07:01:35;100251.00;;;13.80
38114;BMP180;23926;53.222;6.354;2023-11-19T07:04:01;100255.00;;;13.90
38114;BMP180;23926;53.222;6.354;2023-11-19T07:06:33;100257.00;;;14.10
38114;BMP180;23926;53.222;6.354;2023-11-19T07:08:58;100259.00;;;14.00
38114;BMP180;23926;53.222;6.354;2023-11-19T07:11:24;100251.00;;;13.90
38114;BMP180;23926;53.222;6.354;2023-11-19T07:13:49;100259.00;;;14.10
38114;BMP180;23926;53.222;6.354;2023-11-19T07:16:15;100250.00;;;14.30
38114;BMP180;23926;53.222;6.354;2023-11-19T07:18:40;100251.00;;;14.00
38114;BMP180;23926;53.222;6.354;2023-11-19T07:21:09;100263.00;;;13.80
38114;BMP180;23926;53.222;6.354;2023-11-19T07:23:35;100256.00;;;13.70
38114;BMP180;23926;53.222;6.354;2023-11-19T07:26:01;100265.00;;;13.80
38114;BMP180;23926;53.222;6.354;2023-11-19T07:28:26;100280.00;;;13.90
38114;BMP180;23926;53.222;6.354;2023-11-19T07:30:54;100272.00;;;13.80
38114;BMP180;23926;53.222;6.354;2023-11-19T07:33:21;100266.00;;;13.90
38114;BMP180;23926;53.222;6.354;2023-11-19T07:35:46;100275.00;;;13.90
38114;BMP180;23926;53.222;6.354;2023-11-19T07:38:12;100274.00;;;14.00
38114;BMP180;23926;53.222;6.354;2023-11-19T07:40:37;100277.00;;;14.00
38114;BMP180;23926;53.222;6.354;2023-11-19T07:43:03;100274.00;;;14.00
38114;BMP180;23926;53.222;6.354;2023-11-19T07:45:28;100273.00;;;14.30
38114;BMP180;23926;53.222;6.354;2023-11-19T07:47:54;100288.00;;;14.10
38114;BMP180;23926;53.222;6.354;2023-11-19T07:50:19;100292.00;;;14.10
38114;BMP180;23926;53.222;6.354;2023-11-19T07:52:45;100288.00;;;14.20
38114;BMP180;23926;53.222;6.354;2023-11-19T07:55:11;100298.00;;;14.10
38114;BMP180;23926;53.222;6.354;2023-11-19T07:57:37;100296.00;;;14.10
38114;BMP180;23926;53.222;6.354;2023-11-19T08:00:03;100301.00;;;14.10
38114;BMP180;23926;53.222;6.354;2023-11-19T08:02:28;100299.00;;;14.10
38114;BMP180;23926;53.222;6.354;2023-11-19T08:04:54;100294.00;;;14.30
38114;BMP180;23926;53.222;6.354;2023-11-19T08:07:20;100304.00;;;14.30
38114;BMP180;23926;53.222;6.354;2023-11-19T08:09:46;100306.00;;;14.20
38114;BMP180;23926;53.222;6.354;2023-11-19T08:12:11;100298.00;;;14.20
38114;BMP180;23926;53.222;6.354;2023-11-19T08:14:39;100301.00;;;14.10
38114;BMP180;23926;53.222;6.354;2023-11-19T08:17:04;100302.00;;;14.00
38114;BMP180;23926;53.222;6.354;2023-11-19T08:19:30;100311.00;;;14.20
38114;BMP180;23926;53.222;6.354;2023-11-19T08:21:55;100313.00;;;14.20
38114;BMP180;23926;53.222;6.354;2023-11-19T08:24:20;100319.00;;;14.30
38114;BMP180;23926;53.222;6.354;2023-11-19T08:26:46;100318.00;;;14.30
38114;BMP180;23926;53.222;6.354;2023-11-19T08:29:11;100311.00;;;14.30
38114;BMP180;23926;53.222;6.354;2023-11-19T08:31:36;100319.00;;;14.30
38114;BMP180;23926;53.222;6.354;2023-11-19T08:34:02;100315.00;;;14.30
38114;BMP180;23926;53.222;6.354;2023-11-19T08:36:27;100313.00;;;14.60
38114;BMP180;23926;53.222;6.354;2023-11-19T08:38:53;100317.00;;;14.50
38114;BMP180;23926;53.222;6.354;2023-11-19T08:41:19;100312.00;;;14.50
38114;BMP180;23926;53.222;6.354;2023-11-19T08:43:44;100319.00;;;14.50
38114;BMP180;23926;53.222;6.354;2023-11-19T08:46:12;100325.00;;;14.60
38114;BMP180;23926;53.222;6.354;2023-11-19T08:48:38;100315.00;;;14.60
38114;BMP180;23926;53.222;6.354;2023-11-19T08:51:04;100325.00;;;14.40
38114;BMP180;23926;53.222;6.354;2023-11-19T08:53:30;100337.00;;;14.50
38114;BMP180;23926;53.222;6.354;2023-11-19T08:55:55;100341.00;;;14.60
38114;BMP180;23926;53.222;6.354;2023-11-19T08:58:20;100339.00;;;14.70
38114;BMP180;23926;53.222;6.354;2023-11-19T09:00:46;100335.00;;;14.70
38114;BMP180;23926;53.222;6.354;2023-11-19T09:03:12;100335.00;;;14.70
38114;BMP180;23926;53.222;6.354;2023-11-19T09:05:37;100333.00;;;14.60
38114;BMP180;23926;53.222;6.354;2023-11-19T09:08:04;100333.00;;;14.70
38114;BMP180;23926;53.222;6.354;2023-11-19T09:10:29;100326.00;;;14.90
38114;BMP180;23926;53.222;6.354;2023-11-19T09:12:55;100332.00;;;14.50
38114;BMP180;23926;53.222;6.354;2023-11-19T09:15:20;100341.00;;;14.60
38114;BMP180;23926;53.222;6.354;2023-11-19T09:17:46;100332.00;;;14.70
38114;BMP180;23926;53.222;6.354;2023-11-19T09:20:11;100343.00;;;14.90
38114;BMP180;23926;53.222;6.354;2023-11-19T09:22:40;100335.00;;;14.60
38114;BMP180;23926;53.222;6.354;2023-11-19T09:25:05;100336.00;;;14.70
38114;BMP180;23926;53.222;6.354;2023-11-19T09:27:31;100347.00;;;14.70
38114;BMP180;23926;53.222;6.354;2023-11-19T09:29:56;100338.00;;;14.90
38114;BMP180;23926;53.222;6.354;2023-11-19T09:32:24;100335.00;;;15.00
38114;BMP180;23926;53.222;6.354;2023-11-19T09:34:49;100341.00;;;15.00
38114;BMP180;23926;53.222;6.354;2023-11-19T09:37:15;100319.00;;;15.10
38114;BMP180;23926;53.222;6.354;2023-11-19T09:39:40;100325.00;;;15.00
38114;BMP180;23926;53.222;6.354;2023-11-19T09:42:17;100326.00;;;14.90
38114;BMP180;23926;53.222;6.354;2023-11-19T09:44:43;100337.00;;;15.00
38114;BMP180;23926;53.222;6.354;2023-11-19T09:47:10;100340.00;;;15.10
38114;BMP180;23926;53.222;6.354;2023-11-19T09:49:36;100338.00;;;15.30
38114;BMP180;23926;53.222;6.354;2023-11-19T09:52:02;100348.00;;;15.10
38114;BMP180;23926;53.222;6.354;2023-11-19T09:54:28;100335.00;;;15.10
38114;BMP180;23926;53.222;6.354;2023-11-19T09:56:55;100340.00;;;15.40
38114;BMP180;23926;53.222;6.354;2023-11-19T09:59:25;100340.00;;;15.20
38114;BMP180;23926;53.222;6.354;2023-11-19T10:01:50;100343.00;;;15.30
38114;BMP180;23926;53.222;6.354;2023-11-19T10:04:17;100334.00;;;15.50
38114;BMP180;23926;53.222;6.354;2023-11-19T10:06:44;100336.00;;;15.40
38114;BMP180;23926;53.222;6.354;2023-11-19T10:09:12;100333.00;;;15.40
38114;BMP180;23926;53.222;6.354;2023-11-19T10:11:37;100336.00;;;15.40
38114;BMP180;23926;53.222;6.354;2023-11-19T10:14:03;100332.00;;;15.30
38114;BMP180;23926;53.222;6.354;2023-11-19T10:16:29;100324.00;;;15.60
38114;BMP180;23926;53.222;6.354;2023-11-19T10:18:57;100330.00;;;15.40
38114;BMP180;23926;53.222;6.354;2023-11-19T10:21:23;100337.00;;;15.60
38114;BMP180;23926;53.222;6.354;2023-11-19T10:23:56;100340.00;;;15.60
38114;BMP180;23926;53.222;6.354;2023-11-19T10:26:25;100337.00;;;15.80
38114;BMP180;23926;53.222;6.354;2023-11-19T10:28:51;100326.00;;;15.70
38114;BMP180;23926;53.222;6.354;2023-11-19T10:31:17;100336.00;;;15.80
38114;BMP180;23926;53.222;6.354;2023-11-19T10:33:44;100333.00;;;15.80
38114;BMP180;23926;53.222;6.354;2023-11-19T10:36:11;100332.00;;;16.00
38114;BMP180;23926;53.222;6.354;2023-11-19T10:38:40;100333.00;;;15.90
38114;BMP180;23926;53.222;6.354;2023-11-19T10:41:06;100334.00;;;15.80
38114;BMP180;23926;53.222;6.354;2023-11-19T10:43:45;100333.00;;;15.80
38114;BMP180;23926;53.222;6.354;2023-11-19T10:46:12;100337.00;;;16.00
38114;BMP180;23926;53.222;6.354;2023-11-19T10:48:38;100323.00;;;16.10
38114;BMP180;23926;53.222;6.354;2023-11-19T10:51:05;100337.00;;;16.00
38114;BMP180;23926;53.222;6.354;2023-11-19T10:53:37;100347.00;;;16.00
38114;BMP180;23926;53.222;6.354;2023-11-19T10:56:06;100333.00;;;15.90
38114;BMP180;23926;53.222;6.354;2023-11-19T10:58:35;100337.00;;;15.90
38114;BMP180;23926;53.222;6.354;2023-11-19T11:01:09;100341.00;;;15.80
38114;BMP180;23926;53.222;6.354;2023-11-19T11:03:40;100339.00;;;15.90
38114;BMP180;23926;53.222;6.354;2023-11-19T11:06:06;100342.00;;;15.80
38114;BMP180;23926;53.222;6.354;2023-11-19T11:08:32;100336.00;;;15.80
38114;BMP180;23926;53.222;6.354;2023-11-19T11:11:01;100326.00;;;15.80
38114;BMP180;23926;53.222;6.354;2023-11-19T11:13:27;100341.00;;;15.90
38114;BMP180;23926;53.222;6.354;2023-11-19T11:15:55;100330.00;;;15.90
38114;BMP180;23926;53.222;6.354;2023-11-19T11:18:23;100326.00;;;15.80
38114;BMP180;23926;53.222;6.354;2023-11-19T11:20:52;100337.00;;;15.90
38114;BMP180;23926;53.222;6.354;2023-11-19T11:26:19;100314.00;;;15.80
38114;BMP180;23926;53.222;6.354;2023-11-19T11:29:13;100310.00;;;16.00
38114;BMP180;23926;53.222;6.354;2023-11-19T11:36:49;100316.00;;;15.70
38114;BMP180;23926;53.222;6.354;2023-11-19T11:39:21;100321.00;;;15.70
38114;BMP180;23926;53.222;6.354;2023-11-19T11:41:47;100317.00;;;15.30
38114;BMP180;23926;53.222;6.354;2023-11-19T11:44:12;100313.00;;;15.20
38114;BMP180;23926;53.222;6.354;2023-11-19T11:49:06;100323.00;;;14.80
38114;BMP180;23926;53.222;6.354;2023-11-19T11:57:10;100318.00;;;14.80
38114;BMP180;23926;53.222;6.354;2023-11-19T12:02:08;100319.00;;;15.10
38114;BMP180;23926;53.222;6.354;2023-11-19T12:04:34;100309.00;;;15.40
38114;BMP180;23926;53.222;6.354;2023-11-19T12:07:07;100298.00;;;15.30
38114;BMP180;23926;53.222;6.354;2023-11-19T12:09:33;100300.00;;;15.60
38114;BMP180;23926;53.222;6.354;2023-11-19T12:12:17;100297.00;;;15.40
38114;BMP180;23926;53.222;6.354;2023-11-19T12:20:00;100312.00;;;15.50
38114;BMP180;23926;53.222;6.354;2023-11-19T12:22:25;100300.00;;;15.70
38114;BMP180;23926;53.222;6.354;2023-11-19T12:24:52;100288.00;;;16.00
38114;BMP180;23926;53.222;6.354;2023-11-19T12:27:19;100303.00;;;15.80
38114;BMP180;23926;53.222;6.354;2023-11-19T12:29:47;100301.00;;;15.60
38114;BMP180;23926;53.222;6.354;2023-11-19T12:32:12;100303.00;;;15.70
38114;BMP180;23926;53.222;6.354;2023-11-19T12:34:38;100301.00;;;15.60
38114;BMP180;23926;53.222;6.354;2023-11-19T12:37:04;100294.00;;;15.70
38114;BMP180;23926;53.222;6.354;2023-11-19T12:39:30;100301.00;;;15.60
38114;BMP180;23926;53.222;6.354;2023-11-19T12:41:56;100291.00;;;15.80
38114;BMP180;23926;53.222;6.354;2023-11-19T12:44:27;100302.00;;;15.70
38114;BMP180;23926;53.222;6.354;2023-11-19T12:47:06;100303.00;;;15.60
38114;BMP180;23926;53.222;6.354;2023-11-19T12:49:35;100294.00;;;15.50
38114;BMP180;23926;53.222;6.354;2023-11-19T12:52:00;100289.00;;;15.70
38114;BMP180;23926;53.222;6.354;2023-11-19T12:54:36;100296.00;;;15.60
38114;BMP180;23926;53.222;6.354;2023-11-19T12:57:02;100289.00;;;15.60
38114;BMP180;23926;53.222;6.354;2023-11-19T12:59:28;100292.00;;;15.60
38114;BMP180;23926;53.222;6.354;2023-11-19T13:02:00;100292.00;;;15.60
38114;BMP180;23926;53.222;6.354;2023-11-19T13:04:29;100294.00;;;15.60
38114;BMP180;23926;53.222;6.354;2023-11-19T13:06:59;100293.00;;;15.50
38114;BMP180;23926;53.222;6.354;2023-11-19T13:09:25;100287.00;;;15.70
38114;BMP180;23926;53.222;6.354;2023-11-19T13:11:52;100299.00;;;15.70
38114;BMP180;23926;53.222;6.354;2023-11-19T13:14:18;100292.00;;;15.40
38114;BMP180;23926;53.222;6.354;2023-11-19T13:16:44;100297.00;;;15.60
38114;BMP180;23926;53.222;6.354;2023-11-19T13:19:12;100296.00;;;15.50
38114;BMP180;23926;53.222;6.354;2023-11-19T13:21:37;100300.00;;;15.50
38114;BMP180;23926;53.222;6.354;2023-11-19T13:24:05;100299.00;;;15.90
38114;BMP180;23926;53.222;6.354;2023-11-19T13:26:31;100292.00;;;15.50
38114;BMP180;23926;53.222;6.354;2023-11-19T13:28:56;100290.00;;;15.50
38114;BMP180;23926;53.222;6.354;2023-11-19T13:31:22;100307.00;;;15.60
38114;BMP180;23926;53.222;6.354;2023-11-19T13:33:47;100294.00;;;15.50
38114;BMP180;23926;53.222;6.354;2023-11-19T13:36:13;100290.00;;;15.50
38114;BMP180;23926;53.222;6.354;2023-11-19T13:38:39;100301.00;;;15.70
38114;BMP180;23926;53.222;6.354;2023-11-19T13:41:06;100303.00;;;15.40
38114;BMP180;23926;53.222;6.354;2023-11-19T13:43:31;100302.00;;;15.60
38114;BMP180;23926;53.222;6.354;2023-11-19T13:45:57;100291.00;;;15.40
38114;BMP180;23926;53.222;6.354;2023-11-19T13:48:26;100291.00;;;15.70
38114;BMP180;23926;53.222;6.354;2023-11-19T13:50:56;100292.00;;;15.40
38114;BMP180;23926;53.222;6.354;2023-11-19T13:53:22;100286.00;;;15.50
38114;BMP180;23926;53.222;6.354;2023-11-19T13:55:49;100300.00;;;15.00
38114;BMP180;23926;53.222;6.354;2023-11-19T13:58:14;100288.00;;;14.80
38114;BMP180;23926;53.222;6.354;2023-11-19T14:00:41;100284.00;;;14.90
38114;BMP180;23926;53.222;6.354;2023-11-19T14:03:07;100289.00;;;14.90
38114;BMP180;23926;53.222;6.354;2023-11-19T14:05:33;100299.00;;;14.80
38114;BMP180;23926;53.222;6.354;2023-11-19T14:07:58;100294.00;;;14.90
38114;BMP180;23926;53.222;6.354;2023-11-19T14:10:23;100312.00;;;14.50
38114;BMP180;23926;53.222;6.354;2023-11-19T14:12:49;100304.00;;;14.30
38114;BMP180;23926;53.222;6.354;2023-11-19T14:15:17;100294.00;;;14.30
38114;BMP180;23926;53.222;6.354;2023-11-19T14:17:43;100291.00;;;14.30